sensor_id;sensor_type;location;lat;lon;timestamp;P1;durP1;ratioP1;P2;durP2;ratioP2
68432;SDS011;55412;51.350;17.056;2023-02-21T00:02:22;4.05;;;0.70;;
68432;SDS011;55412;51.350;17.056;2023-02-21T00:05:07;3.47;;;0.88;;
68432;SDS011;55412;51.350;17.056;2023-02-21T00:07:51;2.53;;;0.50;;
68432;SDS011;55412;51.350;17.056;2023-02-21T00:10:36;3.55;;;0.68;;
68432;SDS011;55412;51.350;17.056;2023-02-21T00:13:21;3.35;;;0.90;;
68432;SDS011;55412;51.350;17.056;2023-02-21T00:16:05;3.10;;;0.68;;
68432;SDS011;55412;51.350;17.056;2023-02-21T00:18:50;3.08;;;0.60;;
68432;SDS011;55412;51.350;17.056;2023-02-21T00:21:34;3.57;;;0.90;;
68432;SDS011;55412;51.350;17.056;2023-02-21T00:24:19;6.18;;;0.68;;
68432;SDS011;55412;51.350;17.056;2023-02-21T00:27:03;3.78;;;1.00;;
68432;SDS011;55412;51.350;17.056;2023-02-21T00:29:48;4.13;;;0.80;;
68432;SDS011;55412;51.350;17.056;2023-02-21T00:32:34;3.33;;;0.85;;
68432;SDS011;55412;51.350;17.056;2023-02-21T00:35:19;4.00;;;0.80;;
68432;SDS011;55412;51.350;17.056;2023-02-21T00:38:03;4.57;;;0.77;;
68432;SDS011;55412;51.350;17.056;2023-02-21T00:40:48;3.15;;;0.88;;
68432;SDS011;55412;51.350;17.056;2023-02-21T00:43:33;4.00;;;0.90;;
68432;SDS011;55412;51.350;17.056;2023-02-21T00:46:18;3.67;;;0.82;;
68432;SDS011;55412;51.350;17.056;2023-02-21T00:49:04;3.50;;;0.87;;
68432;SDS011;55412;51.350;17.056;2023-02-21T00:51:49;3.55;;;1.00;;
68432;SDS011;55412;51.350;17.056;2023-02-21T00:54:35;3.63;;;0.90;;
68432;SDS011;55412;51.350;17.056;2023-02-21T00:57:20;4.97;;;1.55;;
68432;SDS011;55412;51.350;17.056;2023-02-21T01:00:05;3.83;;;1.00;;
68432;SDS011;55412;51.350;17.056;2023-02-21T01:02:53;3.60;;;0.80;;
68432;SDS011;55412;51.350;17.056;2023-02-21T01:05:37;3.28;;;0.80;;
68432;SDS011;55412;51.350;17.056;2023-02-21T01:08:22;3.40;;;0.70;;
68432;SDS011;55412;51.350;17.056;2023-02-21T01:11:06;3.83;;;0.73;;
68432;SDS011;55412;51.350;17.056;2023-02-21T01:14:01;3.65;;;0.80;;
68432;SDS011;55412;51.350;17.056;2023-02-21T01:16:46;2.87;;;0.50;;
68432;SDS011;55412;51.350;17.056;2023-02-21T01:19:31;3.58;;;0.90;;
68432;SDS011;55412;51.350;17.056;2023-02-21T01:22:15;2.70;;;0.63;;
68432;SDS011;55412;51.350;17.056;2023-02-21T01:25:00;3.15;;;0.90;;
68432;SDS011;55412;51.350;17.056;2023-02-21T01:27:45;5.45;;;1.20;;
68432;SDS011;55412;51.350;17.056;2023-02-21T01:30:29;4.90;;;0.70;;
68432;SDS011;55412;51.350;17.056;2023-02-21T01:33:14;4.55;;;1.27;;
68432;SDS011;55412;51.350;17.056;2023-02-21T01:35:58;3.75;;;0.70;;
68432;SDS011;55412;51.350;17.056;2023-02-21T01:38:43;5.35;;;1.10;;
68432;SDS011;55412;51.350;17.056;2023-02-21T01:41:28;2.90;;;0.70;;
68432;SDS011;55412;51.350;17.056;2023-02-21T01:47:24;3.50;;;0.98;;
68432;SDS011;55412;51.350;17.056;2023-02-21T01:50:12;4.97;;;0.73;;
68432;SDS011;55412;51.350;17.056;2023-02-21T01:53:16;6.55;;;1.05;;
68432;SDS011;55412;51.350;17.056;2023-02-21T01:56:07;3.22;;;0.70;;
68432;SDS011;55412;51.350;17.056;2023-02-21T01:58:53;3.83;;;0.90;;
68432;SDS011;55412;51.350;17.056;2023-02-21T02:05:25;2.70;;;0.60;;
68432;SDS011;55412;51.350;17.056;2023-02-21T02:08:11;2.92;;;0.73;;
68432;SDS011;55412;51.350;17.056;2023-02-21T02:11:41;4.13;;;0.80;;
68432;SDS011;55412;51.350;17.056;2023-02-21T02:35:53;2.63;;;0.50;;
68432;SDS011;55412;51.350;17.056;2023-02-21T02:44:36;3.57;;;0.53;;
68432;SDS011;55412;51.350;17.056;2023-02-21T02:47:04;3.05;;;0.73;;
68432;SDS011;55412;51.350;17.056;2023-02-21T02:49:40;3.10;;;0.63;;
68432;SDS011;55412;51.350;17.056;2023-02-21T02:52:08;2.50;;;0.40;;
68432;SDS011;55412;51.350;17.056;2023-02-21T02:54:35;3.40;;;0.45;;
68432;SDS011;55412;51.350;17.056;2023-02-21T02:57:02;2.50;;;0.40;;
68432;SDS011;55412;51.350;17.056;2023-02-21T02:59:37;2.17;;;0.28;;
68432;SDS011;55412;51.350;17.056;2023-02-21T03:02:31;2.88;;;0.52;;
68432;SDS011;55412;51.350;17.056;2023-02-21T03:08:47;3.20;;;0.60;;
68432;SDS011;55412;51.350;17.056;2023-02-21T03:11:24;3.53;;;0.40;;
68432;SDS011;55412;51.350;17.056;2023-02-21T03:16:47;1.80;;;0.20;;
68432;SDS011;55412;51.350;17.056;2023-02-21T03:19:25;2.45;;;0.60;;
68432;SDS011;55412;51.350;17.056;2023-02-21T03:21:59;2.78;;;0.40;;
68432;SDS011;55412;51.350;17.056;2023-02-21T03:24:31;3.43;;;0.57;;
68432;SDS011;55412;51.350;17.056;2023-02-21T03:27:01;2.00;;;0.35;;
68432;SDS011;55412;51.350;17.056;2023-02-21T03:29:30;2.05;;;0.30;;
68432;SDS011;55412;51.350;17.056;2023-02-21T03:32:32;3.78;;;0.52;;
68432;SDS011;55412;51.350;17.056;2023-02-21T03:35:13;2.50;;;0.40;;
68432;SDS011;55412;51.350;17.056;2023-02-21T03:37:44;2.57;;;0.50;;
68432;SDS011;55412;51.350;17.056;2023-02-21T03:40:22;1.98;;;0.47;;
68432;SDS011;55412;51.350;17.056;2023-02-21T03:42:55;4.28;;;0.68;;
68432;SDS011;55412;51.350;17.056;2023-02-21T03:45:22;2.83;;;0.63;;
68432;SDS011;55412;51.350;17.056;2023-02-21T03:47:48;2.67;;;0.70;;
68432;SDS011;55412;51.350;17.056;2023-02-21T03:50:14;2.70;;;0.50;;
68432;SDS011;55412;51.350;17.056;2023-02-21T03:52:40;2.70;;;0.60;;
68432;SDS011;55412;51.350;17.056;2023-02-21T03:55:07;2.65;;;0.60;;
68432;SDS011;55412;51.350;17.056;2023-02-21T03:57:33;2.78;;;0.40;;
68432;SDS011;55412;51.350;17.056;2023-02-21T04:00:00;3.30;;;0.65;;
68432;SDS011;55412;51.350;17.056;2023-02-21T04:02:26;2.90;;;0.50;;
68432;SDS011;55412;51.350;17.056;2023-02-21T04:04:52;3.08;;;0.65;;
68432;SDS011;55412;51.350;17.056;2023-02-21T04:07:19;3.63;;;0.70;;
68432;SDS011;55412;51.350;17.056;2023-02-21T04:09:46;3.00;;;0.52;;
68432;SDS011;55412;51.350;17.056;2023-02-21T04:12:13;3.15;;;0.90;;
68432;SDS011;55412;51.350;17.056;2023-02-21T04:14:39;3.23;;;0.80;;
68432;SDS011;55412;51.350;17.056;2023-02-21T04:17:05;3.38;;;0.82;;
68432;SDS011;55412;51.350;17.056;2023-02-21T04:19:31;3.33;;;1.05;;
68432;SDS011;55412;51.350;17.056;2023-02-21T04:21:57;2.85;;;0.60;;
68432;SDS011;55412;51.350;17.056;2023-02-21T04:24:23;3.05;;;0.52;;
68432;SDS011;55412;51.350;17.056;2023-02-21T04:26:50;3.20;;;1.00;;
68432;SDS011;55412;51.350;17.056;2023-02-21T04:29:16;4.88;;;1.13;;
68432;SDS011;55412;51.350;17.056;2023-02-21T04:31:42;2.90;;;0.75;;
68432;SDS011;55412;51.350;17.056;2023-02-21T04:34:08;4.18;;;1.55;;
68432;SDS011;55412;51.350;17.056;2023-02-21T04:36:34;3.63;;;1.20;;
68432;SDS011;55412;51.350;17.056;2023-02-21T04:39:02;4.43;;;1.43;;
68432;SDS011;55412;51.350;17.056;2023-02-21T04:41:28;4.75;;;1.48;;
68432;SDS011;55412;51.350;17.056;2023-02-21T04:43:54;4.75;;;1.08;;
68432;SDS011;55412;51.350;17.056;2023-02-21T04:46:20;4.93;;;1.98;;
68432;SDS011;55412;51.350;17.056;2023-02-21T04:48:48;4.90;;;1.48;;
68432;SDS011;55412;51.350;17.056;2023-02-21T04:51:15;3.83;;;1.30;;
68432;SDS011;55412;51.350;17.056;2023-02-21T04:53:46;7.90;;;1.70;;
68432;SDS011;55412;51.350;17.056;2023-02-21T04:56:13;5.45;;;1.35;;
68432;SDS011;55412;51.350;17.056;2023-02-21T04:58:43;6.55;;;1.70;;
68432;SDS011;55412;51.350;17.056;2023-02-21T05:01:10;3.78;;;1.02;;
68432;SDS011;55412;51.350;17.056;2023-02-21T05:03:36;3.80;;;1.17;;
68432;SDS011;55412;51.350;17.056;2023-02-21T05:06:03;5.18;;;1.10;;
68432;SDS011;55412;51.350;17.056;2023-02-21T05:08:29;5.38;;;1.58;;
68432;SDS011;55412;51.350;17.056;2023-02-21T05:10:55;6.00;;;0.93;;
68432;SDS011;55412;51.350;17.056;2023-02-21T05:13:21;4.60;;;1.30;;
68432;SDS011;55412;51.350;17.056;2023-02-21T05:15:48;4.57;;;1.23;;
68432;SDS011;55412;51.350;17.056;2023-02-21T05:18:14;4.80;;;1.42;;
68432;SDS011;55412;51.350;17.056;2023-02-21T05:20:50;3.92;;;1.00;;
68432;SDS011;55412;51.350;17.056;2023-02-21T05:23:17;5.13;;;1.60;;
68432;SDS011;55412;51.350;17.056;2023-02-21T05:26:10;4.32;;;1.38;;
68432;SDS011;55412;51.350;17.056;2023-02-21T05:28:38;5.97;;;1.47;;
68432;SDS011;55412;51.350;17.056;2023-02-21T05:31:05;5.57;;;1.25;;
68432;SDS011;55412;51.350;17.056;2023-02-21T05:33:32;3.40;;;0.90;;
68432;SDS011;55412;51.350;17.056;2023-02-21T05:35:58;4.28;;;1.35;;
68432;SDS011;55412;51.350;17.056;2023-02-21T05:38:25;6.50;;;1.30;;
68432;SDS011;55412;51.350;17.056;2023-02-21T05:40:51;6.13;;;1.60;;
68432;SDS011;55412;51.350;17.056;2023-02-21T05:43:18;9.25;;;1.80;;
68432;SDS011;55412;51.350;17.056;2023-02-21T05:45:44;8.25;;;1.27;;
68432;SDS011;55412;51.350;17.056;2023-02-21T05:48:10;5.70;;;1.73;;
68432;SDS011;55412;51.350;17.056;2023-02-21T05:50:36;6.00;;;1.70;;
68432;SDS011;55412;51.350;17.056;2023-02-21T05:53:03;4.87;;;1.10;;
68432;SDS011;55412;51.350;17.056;2023-02-21T05:55:29;5.80;;;1.50;;
68432;SDS011;55412;51.350;17.056;2023-02-21T05:57:55;4.63;;;1.23;;
68432;SDS011;55412;51.350;17.056;2023-02-21T06:00:22;4.60;;;1.50;;
68432;SDS011;55412;51.350;17.056;2023-02-21T06:02:54;3.42;;;0.93;;
68432;SDS011;55412;51.350;17.056;2023-02-21T06:05:21;4.80;;;1.40;;
68432;SDS011;55412;51.350;17.056;2023-02-21T06:07:48;3.90;;;1.25;;
68432;SDS011;55412;51.350;17.056;2023-02-21T06:10:14;5.35;;;1.00;;
68432;SDS011;55412;51.350;17.056;2023-02-21T06:12:41;4.43;;;0.95;;
68432;SDS011;55412;51.350;17.056;2023-02-21T06:15:08;3.95;;;0.90;;
68432;SDS011;55412;51.350;17.056;2023-02-21T06:17:35;6.00;;;1.20;;
68432;SDS011;55412;51.350;17.056;2023-02-21T06:20:02;5.10;;;1.40;;
68432;SDS011;55412;51.350;17.056;2023-02-21T06:22:30;3.55;;;0.95;;
68432;SDS011;55412;51.350;17.056;2023-02-21T06:24:56;3.90;;;0.80;;
68432;SDS011;55412;51.350;17.056;2023-02-21T06:27:22;3.58;;;0.90;;
68432;SDS011;55412;51.350;17.056;2023-02-21T06:29:48;3.73;;;0.90;;
68432;SDS011;55412;51.350;17.056;2023-02-21T06:32:14;3.25;;;0.60;;
68432;SDS011;55412;51.350;17.056;2023-02-21T06:34:42;3.55;;;0.75;;
68432;SDS011;55412;51.350;17.056;2023-02-21T06:37:09;3.70;;;0.70;;
68432;SDS011;55412;51.350;17.056;2023-02-21T06:39:36;3.97;;;1.00;;
68432;SDS011;55412;51.350;17.056;2023-02-21T06:42:03;2.63;;;0.60;;
68432;SDS011;55412;51.350;17.056;2023-02-21T06:44:30;3.30;;;0.50;;
68432;SDS011;55412;51.350;17.056;2023-02-21T06:46:56;3.35;;;0.50;;
68432;SDS011;55412;51.350;17.056;2023-02-21T06:49:22;3.38;;;0.70;;
68432;SDS011;55412;51.350;17.056;2023-02-21T06:51:48;2.93;;;0.50;;
68432;SDS011;55412;51.350;17.056;2023-02-21T06:54:15;2.75;;;0.52;;
68432;SDS011;55412;51.350;17.056;2023-02-21T06:56:41;3.45;;;0.73;;
68432;SDS011;55412;51.350;17.056;2023-02-21T06:59:08;2.67;;;0.50;;
68432;SDS011;55412;51.350;17.056;2023-02-21T07:01:34;4.65;;;0.75;;
68432;SDS011;55412;51.350;17.056;2023-02-21T07:04:00;3.00;;;0.60;;
68432;SDS011;55412;51.350;17.056;2023-02-21T07:06:27;3.65;;;0.65;;
68432;SDS011;55412;51.350;17.056;2023-02-21T07:08:53;3.03;;;0.52;;
68432;SDS011;55412;51.350;17.056;2023-02-21T07:11:19;3.05;;;0.50;;
68432;SDS011;55412;51.350;17.056;2023-02-21T07:13:46;2.67;;;0.50;;
68432;SDS011;55412;51.350;17.056;2023-02-21T07:16:21;3.43;;;0.60;;
68432;SDS011;55412;51.350;17.056;2023-02-21T07:18:47;3.63;;;0.90;;
68432;SDS011;55412;51.350;17.056;2023-02-21T07:21:13;3.40;;;0.90;;
68432;SDS011;55412;51.350;17.056;2023-02-21T07:23:43;2.67;;;0.65;;
68432;SDS011;55412;51.350;17.056;2023-02-21T07:26:10;3.72;;;0.50;;
68432;SDS011;55412;51.350;17.056;2023-02-21T07:28:37;3.37;;;0.77;;
68432;SDS011;55412;51.350;17.056;2023-02-21T07:31:03;3.35;;;0.93;;
68432;SDS011;55412;51.350;17.056;2023-02-21T07:33:29;3.65;;;0.80;;
68432;SDS011;55412;51.350;17.056;2023-02-21T07:35:56;4.45;;;1.42;;
68432;SDS011;55412;51.350;17.056;2023-02-21T07:38:23;3.75;;;1.00;;
68432;SDS011;55412;51.350;17.056;2023-02-21T07:40:53;3.37;;;0.83;;
68432;SDS011;55412;51.350;17.056;2023-02-21T07:43:25;5.22;;;1.30;;
68432;SDS011;55412;51.350;17.056;2023-02-21T07:45:53;4.15;;;0.70;;
68432;SDS011;55412;51.350;17.056;2023-02-21T07:48:19;4.30;;;1.00;;
68432;SDS011;55412;51.350;17.056;2023-02-21T07:50:46;3.92;;;1.02;;
68432;SDS011;55412;51.350;17.056;2023-02-21T07:53:13;3.93;;;0.77;;
68432;SDS011;55412;51.350;17.056;2023-02-21T07:55:40;5.03;;;1.17;;
68432;SDS011;55412;51.350;17.056;2023-02-21T07:58:06;3.92;;;1.10;;
68432;SDS011;55412;51.350;17.056;2023-02-21T08:00:33;3.92;;;1.10;;
68432;SDS011;55412;51.350;17.056;2023-02-21T08:02:59;3.83;;;0.73;;
68432;SDS011;55412;51.350;17.056;2023-02-21T08:05:26;3.93;;;1.20;;
68432;SDS011;55412;51.350;17.056;2023-02-21T08:07:52;5.88;;;1.35;;
68432;SDS011;55412;51.350;17.056;2023-02-21T08:10:24;4.68;;;1.35;;
68432;SDS011;55412;51.350;17.056;2023-02-21T08:12:52;3.35;;;0.70;;
68432;SDS011;55412;51.350;17.056;2023-02-21T08:15:18;4.20;;;1.08;;
68432;SDS011;55412;51.350;17.056;2023-02-21T08:17:47;4.20;;;1.10;;
68432;SDS011;55412;51.350;17.056;2023-02-21T08:20:15;4.82;;;1.20;;
68432;SDS011;55412;51.350;17.056;2023-02-21T08:22:42;4.38;;;1.00;;
68432;SDS011;55412;51.350;17.056;2023-02-21T08:25:12;4.80;;;1.52;;
68432;SDS011;55412;51.350;17.056;2023-02-21T08:27:41;3.58;;;1.00;;
68432;SDS011;55412;51.350;17.056;2023-02-21T08:30:08;3.77;;;0.87;;
68432;SDS011;55412;51.350;17.056;2023-02-21T08:32:38;4.00;;;0.77;;
68432;SDS011;55412;51.350;17.056;2023-02-21T08:35:05;4.03;;;1.15;;
68432;SDS011;55412;51.350;17.056;2023-02-21T08:37:32;3.88;;;1.05;;
68432;SDS011;55412;51.350;17.056;2023-02-21T08:40:00;3.10;;;1.10;;
68432;SDS011;55412;51.350;17.056;2023-02-21T08:42:28;3.83;;;0.57;;
68432;SDS011;55412;51.350;17.056;2023-02-21T08:44:54;3.60;;;0.85;;
68432;SDS011;55412;51.350;17.056;2023-02-21T08:47:21;3.40;;;0.70;;
68432;SDS011;55412;51.350;17.056;2023-02-21T08:49:47;3.60;;;1.08;;
68432;SDS011;55412;51.350;17.056;2023-02-21T08:52:14;3.10;;;0.80;;
68432;SDS011;55412;51.350;17.056;2023-02-21T08:54:42;3.10;;;0.70;;
68432;SDS011;55412;51.350;17.056;2023-02-21T08:57:09;3.22;;;0.70;;
68432;SDS011;55412;51.350;17.056;2023-02-21T08:59:42;3.30;;;0.90;;
68432;SDS011;55412;51.350;17.056;2023-02-21T09:02:16;3.40;;;0.70;;
68432;SDS011;55412;51.350;17.056;2023-02-21T09:04:46;3.13;;;0.88;;
68432;SDS011;55412;51.350;17.056;2023-02-21T09:07:14;3.37;;;0.90;;
68432;SDS011;55412;51.350;17.056;2023-02-21T09:09:42;2.50;;;0.60;;
68432;SDS011;55412;51.350;17.056;2023-02-21T09:12:09;4.32;;;1.00;;
68432;SDS011;55412;51.350;17.056;2023-02-21T09:14:36;3.92;;;0.90;;
68432;SDS011;55412;51.350;17.056;2023-02-21T09:17:05;4.47;;;0.82;;
68432;SDS011;55412;51.350;17.056;2023-02-21T09:19:34;3.93;;;0.70;;
68432;SDS011;55412;51.350;17.056;2023-02-21T09:22:02;3.85;;;1.00;;
68432;SDS011;55412;51.350;17.056;2023-02-21T09:24:31;3.97;;;1.15;;
68432;SDS011;55412;51.350;17.056;2023-02-21T09:26:57;3.30;;;0.93;;
68432;SDS011;55412;51.350;17.056;2023-02-21T09:29:27;4.03;;;1.00;;
68432;SDS011;55412;51.350;17.056;2023-02-21T09:31:58;3.93;;;0.93;;
68432;SDS011;55412;51.350;17.056;2023-02-21T09:34:26;3.67;;;0.90;;
68432;SDS011;55412;51.350;17.056;2023-02-21T09:36:53;4.03;;;1.13;;
68432;SDS011;55412;51.350;17.056;2023-02-21T09:39:19;3.75;;;1.00;;
68432;SDS011;55412;51.350;17.056;2023-02-21T09:41:47;5.32;;;1.00;;
68432;SDS011;55412;51.350;17.056;2023-02-21T09:44:18;5.40;;;1.43;;
68432;SDS011;55412;51.350;17.056;2023-02-21T09:46:59;3.63;;;0.90;;
68432;SDS011;55412;51.350;17.056;2023-02-21T09:49:30;3.78;;;1.17;;
68432;SDS011;55412;51.350;17.056;2023-02-21T09:52:06;4.32;;;1.35;;
68432;SDS011;55412;51.350;17.056;2023-02-21T09:54:56;5.18;;;1.98;;
68432;SDS011;55412;51.350;17.056;2023-02-21T09:57:26;6.80;;;1.47;;
68432;SDS011;55412;51.350;17.056;2023-02-21T09:59:52;4.72;;;0.90;;
68432;SDS011;55412;51.350;17.056;2023-02-21T10:02:42;3.97;;;1.10;;
68432;SDS011;55412;51.350;17.056;2023-02-21T10:05:38;4.50;;;0.95;;
68432;SDS011;55412;51.350;17.056;2023-02-21T10:11:30;2.57;;;0.60;;
68432;SDS011;55412;51.350;17.056;2023-02-21T10:14:34;3.03;;;0.70;;
68432;SDS011;55412;51.350;17.056;2023-02-21T10:17:41;3.10;;;0.80;;
68432;SDS011;55412;51.350;17.056;2023-02-21T10:20:58;3.20;;;0.47;;
68432;SDS011;55412;51.350;17.056;2023-02-21T10:23:43;2.20;;;0.45;;
68432;SDS011;55412;51.350;17.056;2023-02-21T10:26:16;3.63;;;0.50;;
68432;SDS011;55412;51.350;17.056;2023-02-21T10:28:53;2.90;;;0.75;;
68432;SDS011;55412;51.350;17.056;2023-02-21T10:33:59;3.20;;;0.60;;
68432;SDS011;55412;51.350;17.056;2023-02-21T10:36:27;2.67;;;0.70;;
68432;SDS011;55412;51.350;17.056;2023-02-21T10:38:55;2.83;;;0.47;;
68432;SDS011;55412;51.350;17.056;2023-02-21T10:41:29;2.80;;;0.55;;
68432;SDS011;55412;51.350;17.056;2023-02-21T10:44:03;2.85;;;0.75;;
68432;SDS011;55412;51.350;17.056;2023-02-21T10:46:39;2.45;;;0.60;;
68432;SDS011;55412;51.350;17.056;2023-02-21T10:52:24;4.27;;;0.70;;
68432;SDS011;55412;51.350;17.056;2023-02-21T10:55:04;3.20;;;0.85;;
68432;SDS011;55412;51.350;17.056;2023-02-21T10:57:46;2.78;;;0.52;;
68432;SDS011;55412;51.350;17.056;2023-02-21T11:00:25;2.88;;;0.73;;
68432;SDS011;55412;51.350;17.056;2023-02-21T11:03:02;3.78;;;0.60;;
68432;SDS011;55412;51.350;17.056;2023-02-21T11:05:51;2.53;;;0.40;;
68432;SDS011;55412;51.350;17.056;2023-02-21T11:08:38;3.08;;;0.77;;
68432;SDS011;55412;51.350;17.056;2023-02-21T11:11:08;2.45;;;0.50;;
68432;SDS011;55412;51.350;17.056;2023-02-21T11:13:35;2.45;;;0.40;;
68432;SDS011;55412;51.350;17.056;2023-02-21T11:19:05;2.70;;;0.40;;
68432;SDS011;55412;51.350;17.056;2023-02-21T11:21:32;2.22;;;0.40;;
68432;SDS011;55412;51.350;17.056;2023-02-21T11:23:59;3.22;;;0.90;;
68432;SDS011;55412;51.350;17.056;2023-02-21T11:26:30;2.80;;;0.77;;
68432;SDS011;55412;51.350;17.056;2023-02-21T11:29:12;2.90;;;0.75;;
68432;SDS011;55412;51.350;17.056;2023-02-21T11:31:49;2.80;;;0.53;;
68432;SDS011;55412;51.350;17.056;2023-02-21T11:34:18;3.75;;;0.95;;
68432;SDS011;55412;51.350;17.056;2023-02-21T11:36:45;4.32;;;0.90;;
68432;SDS011;55412;51.350;17.056;2023-02-21T11:39:16;4.82;;;1.05;;
68432;SDS011;55412;51.350;17.056;2023-02-21T11:41:58;2.95;;;0.75;;
68432;SDS011;55412;51.350;17.056;2023-02-21T11:44:38;4.40;;;0.93;;
68432;SDS011;55412;51.350;17.056;2023-02-21T11:47:08;3.28;;;0.60;;
68432;SDS011;55412;51.350;17.056;2023-02-21T11:50:20;4.10;;;0.70;;
68432;SDS011;55412;51.350;17.056;2023-02-21T11:52:53;3.47;;;0.82;;
68432;SDS011;55412;51.350;17.056;2023-02-21T12:01:17;2.55;;;0.30;;
68432;SDS011;55412;51.350;17.056;2023-02-21T12:04:09;2.60;;;0.68;;
68432;SDS011;55412;51.350;17.056;2023-02-21T12:07:08;1.75;;;0.30;;
68432;SDS011;55412;51.350;17.056;2023-02-21T12:15:38;2.03;;;0.40;;
68432;SDS011;55412;51.350;17.056;2023-02-21T12:27:04;3.13;;;0.60;;
68432;SDS011;55412;51.350;17.056;2023-02-21T12:32:49;3.83;;;0.70;;
68432;SDS011;55412;51.350;17.056;2023-02-21T12:42:22;3.77;;;0.30;;
68432;SDS011;55412;51.350;17.056;2023-02-21T12:48:42;3.05;;;0.40;;
68432;SDS011;55412;51.350;17.056;2023-02-21T12:50:51;2.20;;;0.30;;
68432;SDS011;55412;51.350;17.056;2023-02-21T12:53:58;3.08;;;0.60;;
68432;SDS011;55412;51.350;17.056;2023-02-21T12:56:26;2.50;;;0.23;;
68432;SDS011;55412;51.350;17.056;2023-02-21T12:58:58;3.03;;;0.45;;
68432;SDS011;55412;51.350;17.056;2023-02-21T13:01:37;2.97;;;0.50;;
68432;SDS011;55412;51.350;17.056;2023-02-21T13:04:43;2.35;;;0.30;;
68432;SDS011;55412;51.350;17.056;2023-02-21T13:07:23;2.78;;;0.30;;
68432;SDS011;55412;51.350;17.056;2023-02-21T13:10:23;2.70;;;0.50;;
68432;SDS011;55412;51.350;17.056;2023-02-21T13:15:28;3.50;;;0.38;;
68432;SDS011;55412;51.350;17.056;2023-02-21T13:21:33;2.92;;;0.47;;
68432;SDS011;55412;51.350;17.056;2023-02-21T13:28:05;3.40;;;0.43;;
68432;SDS011;55412;51.350;17.056;2023-02-21T13:30:52;2.88;;;0.40;;
68432;SDS011;55412;51.350;17.056;2023-02-21T13:33:29;2.78;;;0.40;;
68432;SDS011;55412;51.350;17.056;2023-02-21T13:36:20;4.68;;;0.60;;
68432;SDS011;55412;51.350;17.056;2023-02-21T13:38:57;3.17;;;0.30;;
68432;SDS011;55412;51.350;17.056;2023-02-21T13:41:52;2.17;;;0.20;;
68432;SDS011;55412;51.350;17.056;2023-02-21T13:44:29;5.82;;;3.03;;
68432;SDS011;55412;51.350;17.056;2023-02-21T13:49:40;4.07;;;0.80;;
68432;SDS011;55412;51.350;17.056;2023-02-21T14:02:57;9.30;;;3.67;;
68432;SDS011;55412;51.350;17.056;2023-02-21T14:18:55;2.40;;;0.30;;
68432;SDS011;55412;51.350;17.056;2023-02-21T14:22:01;2.95;;;0.32;;
68432;SDS011;55412;51.350;17.056;2023-02-21T14:24:44;3.47;;;0.30;;
68432;SDS011;55412;51.350;17.056;2023-02-21T14:29:40;4.50;;;0.50;;
68432;SDS011;55412;51.350;17.056;2023-02-21T14:32:36;2.63;;;0.50;;
68432;SDS011;55412;51.350;17.056;2023-02-21T14:35:20;3.20;;;0.43;;
68432;SDS011;55412;51.350;17.056;2023-02-21T14:37:57;3.90;;;0.50;;
68432;SDS011;55412;51.350;17.056;2023-02-21T14:58:26;3.95;;;0.60;;
68432;SDS011;55412;51.350;17.056;2023-02-21T15:04:19;4.55;;;0.43;;
68432;SDS011;55412;51.350;17.056;2023-02-21T15:12:39;3.85;;;0.63;;
68432;SDS011;55412;51.350;17.056;2023-02-21T15:15:33;8.00;;;1.10;;
68432;SDS011;55412;51.350;17.056;2023-02-21T15:18:04;7.85;;;0.90;;
68432;SDS011;55412;51.350;17.056;2023-02-21T15:20:40;8.82;;;1.05;;
68432;SDS011;55412;51.350;17.056;2023-02-21T15:23:11;4.80;;;0.65;;
68432;SDS011;55412;51.350;17.056;2023-02-21T15:25:41;6.50;;;1.00;;
68432;SDS011;55412;51.350;17.056;2023-02-21T15:28:21;4.80;;;0.80;;
68432;SDS011;55412;51.350;17.056;2023-02-21T15:33:32;5.93;;;0.75;;
68432;SDS011;55412;51.350;17.056;2023-02-21T15:38:50;20.70;;;8.35;;
68432;SDS011;55412;51.350;17.056;2023-02-21T15:41:42;20.23;;;6.73;;
68432;SDS011;55412;51.350;17.056;2023-02-21T15:44:16;14.77;;;2.97;;
68432;SDS011;55412;51.350;17.056;2023-02-21T15:51:55;12.55;;;1.90;;
68432;SDS011;55412;51.350;17.056;2023-02-21T15:54:30;12.73;;;2.03;;
68432;SDS011;55412;51.350;17.056;2023-02-21T15:57:21;13.27;;;2.40;;
68432;SDS011;55412;51.350;17.056;2023-02-21T15:59:48;7.40;;;2.15;;
68432;SDS011;55412;51.350;17.056;2023-02-21T16:02:41;11.27;;;2.17;;
68432;SDS011;55412;51.350;17.056;2023-02-21T16:08:02;14.07;;;2.83;;
68432;SDS011;55412;51.350;17.056;2023-02-21T16:10:29;13.15;;;3.53;;
68432;SDS011;55412;51.350;17.056;2023-02-21T16:12:57;15.85;;;3.58;;
68432;SDS011;55412;51.350;17.056;2023-02-21T16:15:26;13.80;;;3.70;;
68432;SDS011;55412;51.350;17.056;2023-02-21T16:17:56;10.98;;;2.60;;
68432;SDS011;55412;51.350;17.056;2023-02-21T16:20:37;13.60;;;2.13;;
68432;SDS011;55412;51.350;17.056;2023-02-21T16:23:13;11.70;;;3.78;;
68432;SDS011;55412;51.350;17.056;2023-02-21T16:28:40;10.77;;;2.97;;
68432;SDS011;55412;51.350;17.056;2023-02-21T16:31:09;10.85;;;2.30;;
68432;SDS011;55412;51.350;17.056;2023-02-21T16:33:41;9.87;;;2.33;;
68432;SDS011;55412;51.350;17.056;2023-02-21T16:36:09;12.00;;;1.92;;
68432;SDS011;55412;51.350;17.056;2023-02-21T16:38:44;9.05;;;1.65;;
68432;SDS011;55412;51.350;17.056;2023-02-21T16:41:13;19.75;;;7.65;;
68432;SDS011;55412;51.350;17.056;2023-02-21T16:43:40;86.40;;;36.30;;
68432;SDS011;55412;51.350;17.056;2023-02-21T16:46:06;69.45;;;34.08;;
68432;SDS011;55412;51.350;17.056;2023-02-21T16:48:32;48.38;;;24.02;;
68432;SDS011;55412;51.350;17.056;2023-02-21T16:51:03;99.93;;;48.20;;
68432;SDS011;55412;51.350;17.056;2023-02-21T16:53:34;125.25;;;48.13;;
68432;SDS011;55412;51.350;17.056;2023-02-21T16:56:00;291.23;;;112.37;;
68432;SDS011;55412;51.350;17.056;2023-02-21T17:01:07;358.85;;;133.02;;
68432;SDS011;55412;51.350;17.056;2023-02-21T17:03:46;190.90;;;48.33;;
68432;SDS011;55412;51.350;17.056;2023-02-21T17:06:19;165.27;;;41.17;;
68432;SDS011;55412;51.350;17.056;2023-02-21T17:08:48;190.03;;;40.27;;
68432;SDS011;55412;51.350;17.056;2023-02-21T17:11:15;256.15;;;65.28;;
68432;SDS011;55412;51.350;17.056;2023-02-21T17:13:41;326.30;;;102.35;;
68432;SDS011;55412;51.350;17.056;2023-02-21T17:16:07;125.65;;;40.58;;
68432;SDS011;55412;51.350;17.056;2023-02-21T17:18:34;144.68;;;33.50;;
68432;SDS011;55412;51.350;17.056;2023-02-21T17:21:00;91.97;;;18.70;;
68432;SDS011;55412;51.350;17.056;2023-02-21T17:23:27;191.07;;;38.22;;
68432;SDS011;55412;51.350;17.056;2023-02-21T17:25:53;128.88;;;28.23;;
68432;SDS011;55412;51.350;17.056;2023-02-21T17:28:20;129.93;;;27.15;;
68432;SDS011;55412;51.350;17.056;2023-02-21T17:30:46;178.07;;;53.75;;
68432;SDS011;55412;51.350;17.056;2023-02-21T17:33:14;242.43;;;78.20;;
68432;SDS011;55412;51.350;17.056;2023-02-21T17:35:42;140.27;;;54.85;;
68432;SDS011;55412;51.350;17.056;2023-02-21T17:38:09;107.70;;;41.60;;
68432;SDS011;55412;51.350;17.056;2023-02-21T17:40:36;43.75;;;13.35;;
68432;SDS011;55412;51.350;17.056;2023-02-21T17:43:02;50.05;;;11.30;;
68432;SDS011;55412;51.350;17.056;2023-02-21T17:45:32;36.40;;;7.27;;
68432;SDS011;55412;51.350;17.056;2023-02-21T17:48:02;24.17;;;4.57;;
68432;SDS011;55412;51.350;17.056;2023-02-21T17:50:30;34.90;;;6.97;;
68432;SDS011;55412;51.350;17.056;2023-02-21T17:52:56;37.97;;;9.13;;
68432;SDS011;55412;51.350;17.056;2023-02-21T17:55:23;22.13;;;6.20;;
68432;SDS011;55412;51.350;17.056;2023-02-21T17:57:51;18.70;;;4.03;;
68432;SDS011;55412;51.350;17.056;2023-02-21T18:00:18;17.42;;;3.08;;
68432;SDS011;55412;51.350;17.056;2023-02-21T18:02:50;16.77;;;2.88;;